Time;durP1;ratioP1;P1;durP2;ratioP2;P2;SDS_P1;SDS_P2;PMS_P1;PMS_P2;Temp;Humidity;BMP_temperature;BMP_pressure;BME280_temperature;BME280_humidity;BME280_pressure;Samples;Min_cycle;Max_cycle;Signal;HPM_P1;HPM_P2
2023/09/03 00:00:40;;;;;;;7.20;3.90;;;;;;;;;;7371481;19;20010;-69
2023/09/03 00:03:06;;;;;;;8.38;4.43;;;;;;;;;;7369155;19;20027;-69
2023/09/03 00:05:31;;;;;;;6.90;3.67;;;;;;;;;;7368191;19;20011;-69
2023/09/03 00:07:57;;;;;;;6.97;3.95;;;;;;;;;;7368813;19;20396;-69
2023/09/03 00:10:23;;;;;;;6.63;3.95;;;;;;;;;;7391388;19;20013;-69
2023/09/03 00:12:49;;;;;;;7.20;3.90;;;;;;;;;;7368348;19;20014;-69
2023/09/03 00:15:14;;;;;;;11.00;3.85;;;;;;;;;;7367912;19;20034;-69
2023/09/03 00:17:39;;;;;;;8.07;3.40;;;;;;;;;;7369537;19;20010;-69
2023/09/03 00:20:05;;;;;;;8.23;4.18;;;;;;;;;;7369123;19;20015;-69
2023/09/03 00:22:31;;;;;;;6.28;3.00;;;;;;;;;;7391207;19;20070;-69
2023/09/03 00:24:56;;;;;;;6.55;3.38;;;;;;;;;;7366943;19;20023;-69
2023/09/03 00:27:21;;;;;;;6.50;3.50;;;;;;;;;;7370064;19;20002;-69
2023/09/03 00:29:47;;;;;;;7.57;3.92;;;;;;;;;;7370382;19;20027;-69
2023/09/03 00:32:12;;;;;;;10.55;4.00;;;;;;;;;;7369860;19;20473;-69
2023/09/03 00:34:37;;;;;;;5.40;3.38;;;;;;;;;;7388499;19;20015;-69
2023/09/03 00:37:03;;;;;;;7.10;3.78;;;;;;;;;;7368093;19;20014;-69
2023/09/03 00:39:28;;;;;;;9.73;4.20;;;;;;;;;;7368700;19;20006;-69
2023/09/03 00:41:54;;;;;;;5.53;3.35;;;;;;;;;;7367763;19;20025;-70
2023/09/03 00:44:19;;;;;;;8.25;4.25;;;;;;;;;;7367344;19;20082;-70
2023/09/03 00:46:45;;;;;;;9.43;4.25;;;;;;;;;;7388181;19;20123;-69
2023/09/03 00:49:12;;;;;;;9.85;4.20;;;;;;;;;;7368892;19;20509;-69
2023/09/03 00:51:38;;;;;;;6.40;3.88;;;;;;;;;;7367518;19;20010;-69
2023/09/03 00:54:04;;;;;;;6.60;4.45;;;;;;;;;;7366453;19;20010;-69
2023/09/03 00:56:29;;;;;;;10.68;4.82;;;;;;;;;;7368332;19;20601;-69
2023/09/03 00:58:55;;;;;;;10.43;4.38;;;;;;;;;;7369153;19;20003;-69
2023/09/03 01:01:21;;;;;;;5.85;4.15;;;;;;;;;;7389419;19;20516;-69
2023/09/03 01:03:48;;;;;;;7.32;4.00;;;;;;;;;;7367521;19;20116;-69
2023/09/03 01:06:13;;;;;;;7.03;4.05;;;;;;;;;;7366056;19;20441;-70
2023/09/03 01:08:39;;;;;;;8.07;4.38;;;;;;;;;;7366832;19;20045;-69
2023/09/03 01:11:25;;;;;;;8.45;4.30;;;;;;;;;;7365905;19;20066;-69
2023/09/03 01:13:56;;;;;;;7.57;3.40;;;;;;;;;;7366336;19;20032;-69
2023/09/03 01:16:27;;;;;;;5.70;3.70;;;;;;;;;;7391998;19;20018;-69
2023/09/03 01:18:56;;;;;;;5.20;3.30;;;;;;;;;;7378011;19;20009;-69
2023/09/03 01:21:27;;;;;;;5.97;2.97;;;;;;;;;;7376938;19;20006;-69
2023/09/03 01:23:55;;;;;;;;;;;;;;;;;;7371370;19;20020;-69
2023/09/03 01:26:32;;;;;;;5.18;3.00;;;;;;;;;;7364262;19;19919;-69
2023/09/03 01:28:58;;;;;;;6.40;2.72;;;;;;;;;;7363861;19;20006;-69
2023/09/03 01:31:25;;;;;;;4.13;2.55;;;;;;;;;;7385985;19;20008;-69
2023/09/03 01:33:50;;;;;;;6.78;2.80;;;;;;;;;;7361528;19;20015;-69
2023/09/03 01:36:17;;;;;;;5.55;2.70;;;;;;;;;;7362209;19;20090;-69
2023/09/03 01:38:43;;;;;;;4.90;2.85;;;;;;;;;;7362853;19;20006;-69
2023/09/03 01:41:08;;;;;;;7.35;3.08;;;;;;;;;;7364310;19;20026;-69
2023/09/03 01:43:34;;;;;;;7.53;2.88;;;;;;;;;;7387312;19;20002;-69
2023/09/03 01:46:21;;;;;;;6.70;3.00;;;;;;;;;;7364753;19;20010;-70
2023/09/03 01:48:58;;;;;;;6.95;2.90;;;;;;;;;;7366049;19;20035;-69
2023/09/03 01:51:40;;;;;;;4.65;2.65;;;;;;;;;;7365671;19;20010;-69
2023/09/03 01:54:18;;;;;;;8.13;3.25;;;;;;;;;;7364458;19;20027;-69
2023/09/03 01:57:01;;;;;;;6.05;3.33;;;;;;;;;;7365373;19;20614;-69
2023/09/03 01:59:43;;;;;;;6.35;3.25;;;;;;;;;;7367800;19;20044;-69
2023/09/03 02:02:10;;;;;;;5.35;3.28;;;;;;;;;;7371187;19;20013;-69
2023/09/03 02:04:36;;;;;;;6.10;2.95;;;;;;;;;;7393476;19;20077;-69
2023/09/03 02:07:01;;;;;;;5.05;2.83;;;;;;;;;;7371937;19;20815;-69
2023/09/03 02:09:26;;;;;;;5.22;2.90;;;;;;;;;;7372442;19;20027;-69
2023/09/03 02:11:52;;;;;;;6.88;3.42;;;;;;;;;;7373288;19;20031;-69
2023/09/03 02:14:17;;;;;;;5.10;3.03;;;;;;;;;;7370840;19;20010;-69
2023/09/03 02:16:42;;;;;;;6.50;2.88;;;;;;;;;;7394262;19;20009;-69
2023/09/03 02:19:08;;;;;;;6.60;3.33;;;;;;;;;;7373200;19;20010;-69
2023/09/03 02:21:33;;;;;;;7.93;3.35;;;;;;;;;;7371607;19;20750;-69
2023/09/03 02:23:59;;;;;;;5.75;2.97;;;;;;;;;;7371383;19;20023;-69
2023/09/03 02:26:24;;;;;;;6.95;3.47;;;;;;;;;;7372301;19;20031;-69
2023/09/03 02:28:49;;;;;;;9.35;3.00;;;;;;;;;;7390074;19;19999;-69
2023/09/03 02:31:15;;;;;;;6.13;3.38;;;;;;;;;;7383860;19;20006;-69
2023/09/03 02:33:40;;;;;;;6.15;3.10;;;;;;;;;;7371413;19;20014;-69
2023/09/03 02:36:05;;;;;;;7.30;3.10;;;;;;;;;;7372588;19;20394;-69
2023/09/03 02:38:31;;;;;;;7.13;3.25;;;;;;;;;;7373709;19;20007;-69
2023/09/03 02:40:56;;;;;;;6.80;3.20;;;;;;;;;;7375282;19;20275;-70
2023/09/03 02:43:21;;;;;;;8.35;3.50;;;;;;;;;;7398719;19;20414;-70
2023/09/03 02:45:47;;;;;;;6.55;3.50;;;;;;;;;;7373582;19;20019;-69
2023/09/03 02:48:12;;;;;;;6.45;3.25;;;;;;;;;;7375063;19;20007;-69
2023/09/03 02:50:38;;;;;;;6.38;2.90;;;;;;;;;;7373265;19;20090;-69
2023/09/03 02:53:06;;;;;;;7.85;3.35;;;;;;;;;;7370809;19;19999;-70
2023/09/03 02:55:32;;;;;;;5.25;3.30;;;;;;;;;;7390644;19;20481;-70
2023/09/03 02:57:57;;;;;;;6.10;3.08;;;;;;;;;;7372564;19;20006;-70
2023/09/03 03:00:23;;;;;;;8.93;3.78;;;;;;;;;;7372698;19;20018;-70
2023/09/03 03:02:49;;;;;;;5.80;3.33;;;;;;;;;;7372162;19;20010;-70
2023/09/03 03:05:15;;;;;;;7.80;3.40;;;;;;;;;;7374036;19;20028;-70
2023/09/03 03:07:44;;;;;;;7.10;3.22;;;;;;;;;;7397352;19;20002;-70
2023/09/03 03:10:10;;;;;;;6.13;3.35;;;;;;;;;;7377941;19;20002;-70
2023/09/03 03:12:35;;;;;;;7.45;3.45;;;;;;;;;;7375073;19;20356;-70
2023/09/03 03:15:01;;;;;;;5.90;3.55;;;;;;;;;;7370229;19;20006;-70
2023/09/03 03:17:26;;;;;;;6.55;3.42;;;;;;;;;;7370763;19;20664;-70
2023/09/03 03:19:51;;;;;;;6.13;3.20;;;;;;;;;;7371507;19;20038;-70
2023/09/03 03:22:17;;;;;;;7.03;4.05;;;;;;;;;;7392734;19;19994;-70
2023/09/03 03:24:42;;;;;;;8.00;3.08;;;;;;;;;;7367583;19;20029;-70
2023/09/03 03:27:09;;;;;;;6.85;3.22;;;;;;;;;;7371488;19;20038;-70
2023/09/03 03:29:35;;;;;;;5.28;3.38;;;;;;;;;;7370098;19;20468;-70
2023/09/03 03:32:00;;;;;;;5.88;3.30;;;;;;;;;;7371880;19;20009;-70
2023/09/03 03:34:26;;;;;;;8.20;3.60;;;;;;;;;;7390109;19;20006;-70
2023/09/03 03:36:51;;;;;;;7.68;3.58;;;;;;;;;;7368663;19;20010;-70
2023/09/03 03:39:17;;;;;;;6.30;3.40;;;;;;;;;;7371143;19;20011;-70
2023/09/03 03:41:42;;;;;;;7.00;3.13;;;;;;;;;;7369318;19;20010;-70
2023/09/03 03:44:07;;;;;;;7.28;3.67;;;;;;;;;;7369467;19;20010;-70
2023/09/03 03:46:32;;;;;;;7.13;3.47;;;;;;;;;;7390010;19;20014;-70
2023/09/03 03:48:59;;;;;;;9.85;3.60;;;;;;;;;;7370017;19;20031;-70
2023/09/03 03:51:24;;;;;;;5.25;2.90;;;;;;;;;;7369583;19;20012;-70
2023/09/03 03:53:50;;;;;;;6.35;3.30;;;;;;;;;;7368825;19;19995;-70
2023/09/03 03:56:15;;;;;;;7.07;3.35;;;;;;;;;;7368039;19;20039;-70
2023/09/03 03:58:43;;;;;;;6.25;3.10;;;;;;;;;;7391152;19;20001;-70
2023/09/03 04:01:19;;;;;;;6.18;2.95;;;;;;;;;;7369721;19;20026;-70
2023/09/03 04:03:46;;;;;;;7.82;3.33;;;;;;;;;;7369092;19;20002;-70
2023/09/03 04:06:12;;;;;;;4.68;2.78;;;;;;;;;;7368973;19;20007;-70
2023/09/03 04:08:38;;;;;;;5.00;3.10;;;;;;;;;;7369623;19;20002;-70
2023/09/03 04:11:07;;;;;;;5.75;3.25;;;;;;;;;;7368893;19;20110;-70
2023/09/03 04:13:33;;;;;;;8.88;3.35;;;;;;;;;;7390203;19;20491;-69
2023/09/03 04:15:59;;;;;;;5.50;3.30;;;;;;;;;;7368752;19;20010;-70
2023/09/03 04:18:26;;;;;;;6.45;3.45;;;;;;;;;;7368986;19;20035;-69
2023/09/03 04:20:52;;;;;;;6.82;3.70;;;;;;;;;;7369309;19;20090;-70
2023/09/03 04:23:18;;;;;;;5.72;3.30;;;;;;;;;;7368849;19;20021;-69
2023/09/03 04:25:43;;;;;;;7.28;2.92;;;;;;;;;;7388019;19;20002;-69
2023/09/03 04:28:08;;;;;;;7.05;3.35;;;;;;;;;;7369778;19;20031;-69
2023/09/03 04:30:36;;;;;;;8.43;3.53;;;;;;;;;;7369270;19;20035;-70
2023/09/03 04:33:02;;;;;;;6.60;3.22;;;;;;;;;;7369151;19;20066;-70
2023/09/03 04:35:28;;;;;;;6.30;3.30;;;;;;;;;;7366675;19;20014;-70
2023/09/03 04:37:53;;;;;;;6.75;3.22;;;;;;;;;;7368729;19;20033;-70
2023/09/03 04:40:19;;;;;;;5.60;3.25;;;;;;;;;;7390717;19;20005;-70
2023/09/03 04:42:44;;;;;;;6.72;3.70;;;;;;;;;;7368869;19;20043;-69
2023/09/03 04:45:10;;;;;;;5.43;3.00;;;;;;;;;;7367753;19;20011;-69
2023/09/03 04:47:35;;;;;;;8.25;3.08;;;;;;;;;;7369024;19;20063;-69
2023/09/03 04:50:00;;;;;;;6.53;3.35;;;;;;;;;;7368846;19;20010;-69
2023/09/03 04:52:26;;;;;;;6.90;3.50;;;;;;;;;;7390789;19;20003;-70
2023/09/03 04:54:52;;;;;;;5.55;3.35;;;;;;;;;;7363218;19;20793;-71
2023/09/03 04:57:17;;;;;;;7.13;3.30;;;;;;;;;;7364000;19;20006;-69
2023/09/03 04:59:42;;;;;;;5.03;3.13;;;;;;;;;;7365279;19;20021;-69
2023/09/03 05:02:08;;;;;;;7.22;3.50;;;;;;;;;;7365467;19;20010;-70
2023/09/03 05:04:33;;;;;;;5.38;3.08;;;;;;;;;;7386875;19;20490;-70
2023/09/03 05:06:58;;;;;;;5.20;3.30;;;;;;;;;;7364056;19;20006;-70
2023/09/03 05:09:24;;;;;;;7.93;3.50;;;;;;;;;;7365483;19;20107;-71
2023/09/03 05:11:49;;;;;;;5.03;3.28;;;;;;;;;;7368263;19;20090;-70
2023/09/03 05:14:14;;;;;;;6.20;3.40;;;;;;;;;;7366469;19;20027;-70
2023/09/03 05:16:40;;;;;;;6.90;3.60;;;;;;;;;;7388663;19;20014;-70
2023/09/03 05:19:06;;;;;;;6.15;3.55;;;;;;;;;;7367207;19;20025;-70
2023/09/03 05:21:32;;;;;;;6.53;3.25;;;;;;;;;;7367902;19;20092;-69
2023/09/03 05:23:57;;;;;;;6.07;3.38;;;;;;;;;;7365923;19;20014;-69
2023/09/03 05:26:22;;;;;;;7.65;4.05;;;;;;;;;;7368548;19;20373;-70
2023/09/03 05:28:48;;;;;;;5.65;3.20;;;;;;;;;;7395809;19;20015;-70
2023/09/03 05:31:14;;;;;;;8.10;3.78;;;;;;;;;;7374120;19;20018;-69
2023/09/03 05:33:39;;;;;;;8.85;3.88;;;;;;;;;;7372942;19;20006;-69
2023/09/03 05:36:05;;;;;;;6.00;3.47;;;;;;;;;;7379125;19;20040;-76
2023/09/03 05:38:30;;;;;;;6.60;3.47;;;;;;;;;;7379130;19;20654;-74
2023/09/03 05:40:59;;;;;;;6.45;3.50;;;;;;;;;;7369517;19;20003;-72
2023/09/03 05:43:25;;;;;;;7.65;3.70;;;;;;;;;;7388388;19;20035;-74
2023/09/03 05:45:50;;;;;;;5.95;3.13;;;;;;;;;;7366853;19;20002;-61
2023/09/03 05:48:16;;;;;;;4.45;3.08;;;;;;;;;;7368580;19;20074;-60
2023/09/03 05:50:41;;;;;;;5.60;3.33;;;;;;;;;;7368973;19;20395;-61
2023/09/03 05:53:06;;;;;;;6.05;3.22;;;;;;;;;;7368363;19;19998;-61
2023/09/03 05:55:32;;;;;;;6.95;3.20;;;;;;;;;;7394830;19;19999;-60
2023/09/03 05:57:58;;;;;;;7.30;3.00;;;;;;;;;;7375443;19;20015;-61
2023/09/03 06:00:23;;;;;;;6.90;3.30;;;;;;;;;;7372007;19;21053;-60
2023/09/03 06:02:49;;;;;;;6.85;3.30;;;;;;;;;;7366552;19;20540;-60
2023/09/03 06:05:14;;;;;;;7.88;3.20;;;;;;;;;;7366272;19;20006;-60
2023/09/03 06:07:40;;;;;;;5.38;3.20;;;;;;;;;;7389528;19;20531;-61
2023/09/03 06:10:06;;;;;;;6.38;3.22;;;;;;;;;;7367501;19;19999;-62
2023/09/03 06:12:31;;;;;;;9.32;3.20;;;;;;;;;;7368411;19;19999;-59
2023/09/03 06:14:57;;;;;;;5.53;3.00;;;;;;;;;;7368871;19;19998;-60
2023/09/03 06:17:22;;;;;;;5.07;2.80;;;;;;;;;;7378102;19;20019;-60
2023/09/03 06:19:48;;;;;;;5.15;3.13;;;;;;;;;;7407855;19;19999;-60
2023/09/03 06:22:14;;;;;;;5.25;3.08;;;;;;;;;;7380919;19;20014;-60
2023/09/03 06:24:39;;;;;;;4.93;2.92;;;;;;;;;;7375568;19;20056;-61
2023/09/03 06:27:05;;;;;;;4.75;3.00;;;;;;;;;;7368191;19;20023;-61
2023/09/03 06:29:30;;;;;;;8.25;3.03;;;;;;;;;;7365889;19;20010;-60
2023/09/03 06:31:55;;;;;;;4.38;2.80;;;;;;;;;;7365137;19;20793;-60
2023/09/03 06:34:22;;;;;;;4.97;2.55;;;;;;;;;;7385274;19;20011;-61
2023/09/03 06:36:47;;;;;;;8.93;2.92;;;;;;;;;;7364442;19;20497;-60
2023/09/03 06:39:13;;;;;;;4.50;2.45;;;;;;;;;;7366496;19;20011;-60
2023/09/03 06:41:38;;;;;;;5.55;2.92;;;;;;;;;;7365239;19;20010;-60
2023/09/03 06:44:04;;;;;;;5.03;2.85;;;;;;;;;;7361263;19;20011;-60
2023/09/03 06:46:29;;;;;;;4.97;2.55;;;;;;;;;;7384008;19;19999;-60
2023/09/03 06:48:55;;;;;;;5.68;2.80;;;;;;;;;;7365914;19;20391;-59
2023/09/03 06:51:20;;;;;;;4.35;2.65;;;;;;;;;;7366466;19;20003;-60
2023/09/03 06:53:46;;;;;;;7.47;2.60;;;;;;;;;;7363668;19;20156;-61
2023/09/03 06:56:11;;;;;;;4.40;2.67;;;;;;;;;;7366558;19;20022;-61
2023/09/03 06:58:36;;;;;;;5.88;3.00;;;;;;;;;;7390714;19;20031;-61
2023/09/03 07:01:03;;;;;;;5.28;2.97;;;;;;;;;;7371805;19;20014;-57
2023/09/03 07:03:29;;;;;;;5.65;3.10;;;;;;;;;;7371364;19;20003;-60
2023/09/03 07:05:54;;;;;;;5.88;2.85;;;;;;;;;;7371568;19;20512;-59
2023/09/03 07:08:20;;;;;;;6.82;3.33;;;;;;;;;;7372158;19;20092;-61
2023/09/03 07:10:45;;;;;;;5.00;2.95;;;;;;;;;;7394146;19;20003;-58
2023/09/03 07:13:11;;;;;;;5.40;3.35;;;;;;;;;;7370796;19;20007;-58
2023/09/03 07:15:36;;;;;;;5.70;3.38;;;;;;;;;;7370223;19;20023;-59
2023/09/03 07:18:02;;;;;;;7.22;3.60;;;;;;;;;;7371943;19;20031;-59
2023/09/03 07:20:28;;;;;;;5.57;3.35;;;;;;;;;;7371403;19;20018;-59
2023/09/03 07:22:53;;;;;;;5.60;3.00;;;;;;;;;;7371284;19;20006;-59
2023/09/03 07:25:18;;;;;;;8.50;3.50;;;;;;;;;;7390263;19;20006;-60
2023/09/03 07:27:44;;;;;;;7.18;4.10;;;;;;;;;;7371660;19;20007;-59
2023/09/03 07:30:09;;;;;;;7.88;4.50;;;;;;;;;;7370961;19;20006;-59
2023/09/03 07:32:37;;;;;;;11.25;5.00;;;;;;;;;;7386576;19;20022;-58
2023/09/03 07:35:06;;;;;;;6.88;4.40;;;;;;;;;;7368641;19;20013;-59
2023/09/03 07:37:32;;;;;;;10.10;4.68;;;;;;;;;;7391891;19;20053;-59
2023/09/03 07:39:58;;;;;;;8.13;4.57;;;;;;;;;;7369689;19;20006;-59
2023/09/03 07:42:23;;;;;;;7.20;4.50;;;;;;;;;;7370436;19;20421;-58
2023/09/03 07:44:49;;;;;;;10.38;5.03;;;;;;;;;;7368324;19;20036;-59
2023/09/03 07:47:14;;;;;;;9.43;4.63;;;;;;;;;;7370681;19;20274;-55
2023/09/03 07:49:39;;;;;;;8.27;5.72;;;;;;;;;;7390770;19;20045;-58
2023/09/03 07:52:06;;;;;;;8.88;5.07;;;;;;;;;;7361279;19;20124;-59
2023/09/03 07:54:32;;;;;;;11.48;5.53;;;;;;;;;;7364504;19;20010;-58
2023/09/03 07:56:57;;;;;;;8.02;4.90;;;;;;;;;;7364482;19;20393;-58
2023/09/03 07:59:23;;;;;;;8.75;5.22;;;;;;;;;;7365496;19;20461;-59
2023/09/03 08:01:48;;;;;;;9.73;5.70;;;;;;;;;;7387532;19;20002;-60
2023/09/03 08:04:13;;;;;;;8.50;5.55;;;;;;;;;;7367307;19;20406;-58
2023/09/03 08:06:38;;;;;;;10.35;5.60;;;;;;;;;;7369238;19;20007;-63
2023/09/03 08:09:05;;;;;;;10.77;5.82;;;;;;;;;;7374905;19;20023;-62
2023/09/03 08:11:31;;;;;;;7.20;5.63;;;;;;;;;;7369825;19;20018;-61
2023/09/03 08:13:59;;;;;;;8.48;5.55;;;;;;;;;;7367487;19;20054;-62
2023/09/03 08:16:24;;;;;;;7.32;5.15;;;;;;;;;;7388766;19;20847;-63
2023/09/03 08:18:49;;;;;;;9.40;6.43;;;;;;;;;;7366764;19;20042;-64
2023/09/03 08:21:15;;;;;;;11.50;5.85;;;;;;;;;;7366517;19;20030;-62
2023/09/03 08:23:43;;;;;;;10.15;5.70;;;;;;;;;;7364449;19;20153;-62
2023/09/03 08:26:08;;;;;;;12.13;6.13;;;;;;;;;;7366119;19;20441;-61
2023/09/03 08:28:34;;;;;;;8.52;5.65;;;;;;;;;;7387754;19;20014;-62
2023/09/03 08:30:59;;;;;;;7.70;5.65;;;;;;;;;;7366619;19;20525;-62
2023/09/03 08:33:24;;;;;;;9.25;5.72;;;;;;;;;;7364772;19;20022;-63
2023/09/03 08:35:50;;;;;;;13.40;6.65;;;;;;;;;;7364794;19;20006;-62
2023/09/03 08:38:15;;;;;;;7.78;5.30;;;;;;;;;;7365123;19;20010;-62
2023/09/03 08:40:43;;;;;;;8.70;5.78;;;;;;;;;;7385607;19;20919;-63
2023/09/03 08:43:09;;;;;;;9.93;6.05;;;;;;;;;;7366214;19;20010;-62
2023/09/03 08:45:41;;;;;;;10.65;6.43;;;;;;;;;;7362046;19;20007;-61
2023/09/03 08:48:06;;;;;;;9.57;6.63;;;;;;;;;;7367098;19;20129;-61
2023/09/03 08:50:33;;;;;;;10.35;6.70;;;;;;;;;;7365860;19;20006;-61
2023/09/03 08:53:00;;;;;;;9.43;6.03;;;;;;;;;;7365938;19;20002;-61
2023/09/03 08:55:29;;;;;;;8.02;6.05;;;;;;;;;;7384924;19;20097;-61
2023/09/03 08:57:54;;;;;;;11.40;6.30;;;;;;;;;;7368583;19;20002;-61
2023/09/03 09:00:20;;;;;;;10.15;6.85;;;;;;;;;;7366955;19;20019;-61
2023/09/03 09:02:48;;;;;;;11.35;6.22;;;;;;;;;;7366260;19;20006;-63
2023/09/03 09:05:14;;;;;;;9.65;6.57;;;;;;;;;;7359335;19;20219;-62
2023/09/03 09:07:40;;;;;;;10.48;7.28;;;;;;;;;;7385552;19;20006;-61
2023/09/03 09:10:10;;;;;;;8.93;6.55;;;;;;;;;;7365997;19;20010;-62
2023/09/03 09:12:56;;;;;;;9.35;5.63;;;;;;;;;;7364179;19;20002;-62
2023/09/03 09:15:21;;;;;;;8.60;6.10;;;;;;;;;;7364103;19;20006;-62
2023/09/03 09:17:48;;;;;;;10.73;6.00;;;;;;;;;;7363875;19;20002;-62
2023/09/03 09:20:14;;;;;;;10.30;6.72;;;;;;;;;;7365749;19;20043;-62
2023/09/03 09:22:44;;;;;;;8.23;5.03;;;;;;;;;;7383546;19;20378;-62
2023/09/03 09:25:23;;;;;;;8.25;5.75;;;;;;;;;;7362340;19;20024;-62
2023/09/03 09:27:49;;;;;;;8.02;4.78;;;;;;;;;;7337479;19;20741;-63
2023/09/03 09:30:19;;;;;;;7.82;5.20;;;;;;;;;;7356685;19;20074;-62
2023/09/03 09:32:45;;;;;;;8.23;5.45;;;;;;;;;;7362645;19;20015;-63
2023/09/03 09:35:24;;;;;;;8.77;5.50;;;;;;;;;;7360544;19;20011;-63
2023/09/03 09:37:50;;;;;;;8.57;5.53;;;;;;;;;;7382970;19;20014;-63
2023/09/03 09:40:25;;;;;;;7.15;4.97;;;;;;;;;;7363859;19;20029;-63
2023/09/03 09:42:53;;;;;;;8.07;4.70;;;;;;;;;;7360681;19;20003;-64
2023/09/03 09:45:18;;;;;;;8.18;5.32;;;;;;;;;;7362781;19;20006;-63
2023/09/03 09:47:45;;;;;;;6.90;4.10;;;;;;;;;;7361364;19;20161;-63
2023/09/03 09:50:11;;;;;;;7.22;4.80;;;;;;;;;;7363288;19;20016;-63
2023/09/03 09:52:37;;;;;;;7.05;5.28;;;;;;;;;;7381650;19;20003;-63
2023/09/03 09:55:03;;;;;;;8.15;5.25;;;;;;;;;;7359926;19;20010;-63
2023/09/03 09:57:28;;;;;;;7.60;5.20;;;;;;;;;;7361703;19;20031;-63
2023/09/03 09:59:55;;;;;;;7.57;5.40;;;;;;;;;;7364054;19;19999;-63
2023/09/03 10:02:22;;;;;;;10.95;5.40;;;;;;;;;;7363836;19;20518;-63
2023/09/03 10:04:49;;;;;;;8.75;5.32;;;;;;;;;;7381332;19;20010;-64
2023/09/03 10:07:15;;;;;;;8.75;5.85;;;;;;;;;;7362022;19;20011;-64
2023/09/03 10:09:42;;;;;;;10.35;5.78;;;;;;;;;;7359859;19;20010;-63
2023/09/03 10:12:09;;;;;;;8.10;5.65;;;;;;;;;;7364051;19;20006;-64
2023/09/03 10:14:35;;;;;;;9.27;7.00;;;;;;;;;;7358056;19;20501;-61
2023/09/03 10:17:02;;;;;;;9.07;6.60;;;;;;;;;;7384160;19;20014;-62
2023/09/03 10:19:37;;;;;;;7.28;6.05;;;;;;;;;;7361900;19;20010;-62
2023/09/03 10:22:06;;;;;;;7.95;5.85;;;;;;;;;;7369683;19;20011;-62
2023/09/03 10:24:34;;;;;;;7.78;5.63;;;;;;;;;;7365431;19;20014;-63
2023/09/03 10:27:03;;;;;;;8.60;5.97;;;;;;;;;;7371081;19;20006;-62
2023/09/03 10:29:32;;;;;;;9.63;5.93;;;;;;;;;;7367954;19;20700;-63
2023/09/03 10:32:00;;;;;;;9.23;6.05;;;;;;;;;;7391048;19;20521;-63
2023/09/03 10:34:25;;;;;;;10.38;6.40;;;;;;;;;;7367210;19;20089;-63
2023/09/03 10:37:05;;;;;;;8.88;6.10;;;;;;;;;;7366243;19;20413;-63
2023/09/03 10:39:31;;;;;;;8.25;5.75;;;;;;;;;;7367062;19;20015;-63
2023/09/03 10:42:14;;;;;;;7.85;5.82;;;;;;;;;;7368657;19;20022;-63
2023/09/03 10:44:44;;;;;;;9.80;6.03;;;;;;;;;;7365830;19;20163;-62
2023/09/03 10:47:17;;;;;;;9.25;6.07;;;;;;;;;;7368123;19;20489;-62
2023/09/03 10:49:53;;;;;;;7.32;4.88;;;;;;;;;;7390296;19;20083;-62
2023/09/03 10:52:31;;;;;;;7.38;5.38;;;;;;;;;;7367171;19;20013;-62
2023/09/03 10:55:12;;;;;;;10.10;6.25;;;;;;;;;;7367082;19;20693;-62
2023/09/03 10:57:37;;;;;;;9.55;5.57;;;;;;;;;;7369102;19;20002;-63
2023/09/03 11:00:06;;;;;;;8.57;5.97;;;;;;;;;;7372450;19;20008;-62
2023/09/03 11:02:33;;;;;;;8.77;5.68;;;;;;;;;;7376361;19;20002;-61
2023/09/03 11:05:21;;;;;;;9.32;6.10;;;;;;;;;;7397513;19;20010;-62
2023/09/03 11:07:49;;;;;;;8.27;6.10;;;;;;;;;;7375794;19;20015;-61
2023/09/03 11:10:21;;;;;;;8.80;5.80;;;;;;;;;;7370298;19;20021;-61
2023/09/03 11:12:47;;;;;;;8.85;6.30;;;;;;;;;;7368791;19;20155;-61
2023/09/03 11:15:13;;;;;;;10.18;5.88;;;;;;;;;;7368260;19;20013;-62
2023/09/03 11:17:41;;;;;;;9.10;6.07;;;;;;;;;;7367014;19;20022;-61
2023/09/03 11:20:08;;;;;;;9.27;5.85;;;;;;;;;;7369234;19;20010;-62
2023/09/03 11:22:37;;;;;;;7.40;5.60;;;;;;;;;;7389234;19;19999;-60
2023/09/03 11:25:07;;;;;;;10.43;6.00;;;;;;;;;;7366512;19;20854;-61
2023/09/03 11:27:32;;;;;;;9.38;6.20;;;;;;;;;;7366213;19;20007;-62
2023/09/03 11:30:05;;;;;;;8.10;5.03;;;;;;;;;;7367849;19;20010;-61
2023/09/03 11:32:37;;;;;;;7.88;4.75;;;;;;;;;;7363246;19;20592;-61
2023/09/03 11:35:03;;;;;;;6.15;4.22;;;;;;;;;;7370748;19;20066;-60
2023/09/03 11:37:29;;;;;;;5.90;3.90;;;;;;;;;;7388376;19;20468;-58
2023/09/03 11:39:54;;;;;;;5.40;4.00;;;;;;;;;;7366306;19;20011;-60
2023/09/03 11:42:22;;;;;;;5.45;3.63;;;;;;;;;;7367512;19;20015;-60
2023/09/03 11:44:50;;;;;;;6.50;3.95;;;;;;;;;;7365585;19;20015;-63
2023/09/03 11:47:16;;;;;;;6.47;4.00;;;;;;;;;;7366788;19;20011;-60
2023/09/03 11:49:45;;;;;;;5.90;3.97;;;;;;;;;;7383742;19;20006;-60
2023/09/03 11:52:11;;;;;;;6.22;4.47;;;;;;;;;;7364932;19;20016;-60
2023/09/03 11:54:36;;;;;;;7.03;4.78;;;;;;;;;;7362684;19;20504;-58
2023/09/03 11:57:03;;;;;;;6.80;4.35;;;;;;;;;;7366209;19;20024;-59
2023/09/03 11:59:29;;;;;;;6.60;4.32;;;;;;;;;;7367089;19;20023;-59
2023/09/03 12:01:54;;;;;;;5.68;4.15;;;;;;;;;;7389803;19;20353;-60
2023/09/03 12:04:21;;;;;;;7.80;4.55;;;;;;;;;;7363503;19;20006;-58
2023/09/03 12:06:46;;;;;;;7.13;5.10;;;;;;;;;;7366295;19;20535;-61
2023/09/03 12:09:13;;;;;;;7.82;5.03;;;;;;;;;;7367877;19;20018;-60
2023/09/03 12:11:38;;;;;;;6.40;4.60;;;;;;;;;;7364362;19;20342;-61
2023/09/03 12:14:07;;;;;;;8.15;4.78;;;;;;;;;;7364948;19;20014;-60
2023/09/03 12:16:47;;;;;;;7.15;4.78;;;;;;;;;;7384118;19;20005;-61
2023/09/03 12:19:12;;;;;;;6.27;4.40;;;;;;;;;;7364537;19;20039;-61
2023/09/03 12:21:38;;;;;;;7.82;4.10;;;;;;;;;;7363638;19;20263;-62
2023/09/03 12:24:05;;;;;;;6.63;4.82;;;;;;;;;;7364361;19;20009;-63
2023/09/03 12:26:37;;;;;;;6.40;4.70;;;;;;;;;;7361909;19;20042;-61
2023/09/03 12:29:21;;;;;;;9.05;5.05;;;;;;;;;;7372638;19;20002;-61
2023/09/03 12:31:47;;;;;;;9.82;5.38;;;;;;;;;;7388225;19;19998;-61
2023/09/03 12:34:14;;;;;;;7.53;5.00;;;;;;;;;;7364081;19;20517;-61
2023/09/03 12:36:56;;;;;;;7.70;5.50;;;;;;;;;;7362828;19;20017;-61
2023/09/03 12:39:35;;;;;;;8.95;4.65;;;;;;;;;;7360624;19;20363;-61
2023/09/03 12:42:01;;;;;;;5.78;4.22;;;;;;;;;;7365334;19;20016;-60
2023/09/03 12:44:28;;;;;;;8.80;5.00;;;;;;;;;;7362059;19;20361;-60
2023/09/03 12:46:54;;;;;;;7.68;4.68;;;;;;;;;;7385571;19;19999;-62
2023/09/03 12:49:20;;;;;;;6.65;4.57;;;;;;;;;;7365609;19;20003;-59
2023/09/03 12:51:45;;;;;;;6.57;4.63;;;;;;;;;;7366244;19;20447;-60
2023/09/03 12:54:11;;;;;;;6.82;4.82;;;;;;;;;;7366465;19;19998;-62
2023/09/03 12:56:37;;;;;;;7.68;4.60;;;;;;;;;;7366423;19;20483;-62
2023/09/03 12:59:05;;;;;;;6.15;4.38;;;;;;;;;;7380007;19;20054;-61
2023/09/03 13:01:31;;;;;;;5.88;4.38;;;;;;;;;;7389545;19;19994;-61
2023/09/03 13:03:57;;;;;;;5.57;3.80;;;;;;;;;;7364911;19;20016;-59
2023/09/03 13:06:22;;;;;;;6.00;4.18;;;;;;;;;;7364137;19;20062;-60
2023/09/03 13:08:47;;;;;;;6.30;4.20;;;;;;;;;;7363388;19;20002;-59
2023/09/03 13:11:13;;;;;;;7.88;4.57;;;;;;;;;;7363930;19;20006;-61
2023/09/03 13:13:38;;;;;;;5.80;4.38;;;;;;;;;;7385325;19;19998;-58
2023/09/03 13:16:04;;;;;;;5.57;3.70;;;;;;;;;;7365230;19;20078;-60
2023/09/03 13:18:29;;;;;;;5.90;4.65;;;;;;;;;;7366914;19;20007;-59
2023/09/03 13:20:56;;;;;;;6.18;4.22;;;;;;;;;;7367119;19;20009;-61
2023/09/03 13:23:21;;;;;;;6.28;4.18;;;;;;;;;;7365121;19;20036;-61
2023/09/03 13:25:47;;;;;;;6.60;4.45;;;;;;;;;;7383162;19;20429;-61
2023/09/03 13:28:12;;;;;;;8.43;4.53;;;;;;;;;;7362586;19;20013;-60
2023/09/03 13:30:38;;;;;;;7.82;4.45;;;;;;;;;;7361795;19;20012;-67
2023/09/03 13:33:07;;;;;;;6.90;4.28;;;;;;;;;;7365843;19;20059;-66
2023/09/03 13:35:33;;;;;;;6.88;4.32;;;;;;;;;;7361251;19;20027;-67
2023/09/03 13:38:01;;;;;;;6.30;4.13;;;;;;;;;;7385417;19;20073;-66
2023/09/03 13:40:26;;;;;;;5.80;4.38;;;;;;;;;;7364221;19;20013;-67
2023/09/03 13:42:52;;;;;;;5.78;4.18;;;;;;;;;;7364434;19;20002;-67
2023/09/03 13:45:17;;;;;;;12.90;5.38;;;;;;;;;;7364175;19;20033;-67
2023/09/03 13:47:42;;;;;;;6.85;5.13;;;;;;;;;;7364926;19;20066;-67
2023/09/03 13:50:08;;;;;;;7.75;5.00;;;;;;;;;;7367019;19;20002;-67
2023/09/03 13:52:35;;;;;;;7.38;4.60;;;;;;;;;;7388733;19;20355;-67
2023/09/03 13:55:00;;;;;;;8.43;4.43;;;;;;;;;;7364856;19;20039;-66
2023/09/03 13:57:26;;;;;;;6.70;4.53;;;;;;;;;;7374200;19;20009;-67
2023/09/03 13:59:51;;;;;;;6.22;4.15;;;;;;;;;;7375174;19;20006;-67
2023/09/03 14:02:17;;;;;;;7.13;4.63;;;;;;;;;;7373772;19;20010;-67
2023/09/03 14:04:49;;;;;;;5.85;4.20;;;;;;;;;;7392257;19;19998;-67
2023/09/03 14:07:15;;;;;;;7.70;4.60;;;;;;;;;;7373417;19;20473;-67
2023/09/03 14:09:41;;;;;;;6.20;4.00;;;;;;;;;;7374029;19;20010;-67
2023/09/03 14:12:06;;;;;;;6.50;4.43;;;;;;;;;;7373537;19;20703;-67
2023/09/03 14:14:31;;;;;;;7.20;4.68;;;;;;;;;;7372173;19;20066;-67
2023/09/03 14:16:57;;;;;;;6.43;4.07;;;;;;;;;;7395126;19;20480;-67
2023/09/03 14:19:22;;;;;;;7.10;4.80;;;;;;;;;;7373055;19;20024;-67
2023/09/03 14:21:47;;;;;;;6.25;4.20;;;;;;;;;;7373204;19;20010;-67
2023/09/03 14:24:13;;;;;;;6.35;4.15;;;;;;;;;;7373006;19;20003;-67
2023/09/03 14:26:38;;;;;;;10.13;4.22;;;;;;;;;;7373255;19;20010;-67
2023/09/03 14:29:09;;;;;;;6.40;4.50;;;;;;;;;;7374030;19;20062;-67
2023/09/03 14:31:34;;;;;;;6.63;4.47;;;;;;;;;;7395776;19;20032;-67
2023/09/03 14:34:00;;;;;;;6.20;4.13;;;;;;;;;;7373069;19;20014;-67
2023/09/03 14:36:25;;;;;;;6.38;4.13;;;;;;;;;;7372220;19;20009;-67
2023/09/03 14:38:50;;;;;;;5.80;4.15;;;;;;;;;;7372904;19;20002;-67
2023/09/03 14:41:16;;;;;;;7.18;4.50;;;;;;;;;;7373331;19;20015;-67